Aviation Digital Data Service (ADDS)

Output produced by TAFs form (1856 UTC 16 April 2014)
found at http://aviationweather.gov/adds/tafs/
 
KPUB 161732Z 1618/1718 08010G20KT P6SM FEW080 BKN150 
     FM162300 06012KT P6SM VCSH BKN070 
     FM170100 05008KT 5SM -SHRA OVC025 
     FM170400 VRB05KT 4SM -SHRASN BKN015 
     FM170800 VRB06KT P6SM SCT030 BKN060 
     FM171200 VRB06KT P6SM SCT040 SCT150